createdAt,value
2018-11-23T00:01:32.717Z,6.53
2018-11-23T00:04:13.805Z,6.40
2018-11-23T00:06:55.508Z,6.20
2018-11-23T00:09:24.767Z,6.17
2018-11-23T00:12:13.336Z,5.67
2018-11-23T00:14:55.006Z,5.70
2018-11-23T00:17:36.774Z,5.67
2018-11-23T00:20:25.794Z,5.73
2018-11-23T00:22:55.006Z,5.30
2018-11-23T00:25:43.604Z,5.40
2018-11-23T00:28:25.117Z,6.23
2018-11-23T00:31:07.161Z,5.53
2018-11-23T00:33:48.663Z,5.23
2018-11-23T00:36:30.670Z,5.93
2018-11-23T00:39:12.258Z,5.77
2018-11-23T00:41:53.434Z,5.63
2018-11-23T00:44:34.753Z,5.50
2018-11-23T00:47:15.818Z,4.40
2018-11-23T00:49:57.517Z,4.27
2018-11-23T00:52:40.911Z,4.43
2018-11-23T00:56:48.125Z,4.37
2018-11-23T00:59:17.564Z,3.50
2018-11-23T01:01:52.341Z,3.77
2018-11-23T01:04:22.013Z,3.87
2018-11-23T01:06:51.573Z,3.40
2018-11-23T01:09:20.892Z,3.37
2018-11-23T01:11:50.349Z,3.13
2018-11-23T01:14:19.799Z,3.40
2018-11-23T01:16:49.593Z,3.10
2018-11-23T01:19:18.888Z,2.70
2018-11-23T01:21:48.341Z,3.17
2018-11-23T01:24:18.249Z,3.17
2018-11-23T01:26:47.635Z,2.70
2018-11-23T01:29:17.096Z,2.90
2018-11-23T01:31:46.537Z,3.37
2018-11-23T01:34:15.934Z,2.90
2018-11-23T01:36:45.408Z,2.90
2018-11-23T01:39:15.116Z,3.00
2018-11-23T01:41:44.722Z,2.87
2018-11-23T01:44:14.172Z,3.43
2018-11-23T01:46:43.565Z,3.00
2018-11-23T01:49:13.198Z,2.57
2018-11-23T01:51:42.609Z,2.83
2018-11-23T01:54:12.129Z,2.57
2018-11-23T01:56:41.490Z,2.70
2018-11-23T01:59:11.261Z,2.83
2018-11-23T02:01:40.568Z,2.50
2018-11-23T02:04:10.406Z,2.60
2018-11-23T02:06:39.703Z,2.75
2018-11-23T02:09:09.180Z,2.50
2018-11-23T02:11:38.697Z,2.70
2018-11-23T02:14:07.980Z,2.70
2018-11-23T02:16:37.365Z,2.60
2018-11-23T02:19:06.691Z,2.87
2018-11-23T02:21:36.027Z,2.65
2018-11-23T02:24:05.538Z,2.40
2018-11-23T02:26:35.055Z,2.40
2018-11-23T02:29:04.766Z,2.43
2018-11-23T02:31:34.281Z,2.70
2018-11-23T02:34:03.557Z,2.60
2018-11-23T02:36:33.023Z,2.52
2018-11-23T02:39:02.382Z,2.10
2018-11-23T02:41:31.629Z,2.17
2018-11-23T02:44:01.445Z,2.03
2018-11-23T02:46:30.996Z,2.03
2018-11-23T02:49:00.275Z,2.00
2018-11-23T02:51:29.711Z,2.07
2018-11-23T02:53:59.164Z,1.67
2018-11-23T02:56:37.972Z,1.67
2018-11-23T02:59:08.837Z,1.87
2018-11-23T03:01:38.353Z,2.00
2018-11-23T03:04:08.621Z,2.10
2018-11-23T03:06:37.891Z,2.03
2018-11-23T03:09:08.761Z,2.40
2018-11-23T03:11:40.159Z,1.92
2018-11-23T03:14:10.236Z,2.53
2018-11-23T03:16:39.745Z,2.50
2018-11-23T03:19:09.092Z,2.37
2018-11-23T03:21:38.568Z,2.20
2018-11-23T03:24:07.871Z,2.27
2018-11-23T03:26:37.805Z,2.43
2018-11-23T03:29:07.187Z,2.30
2018-11-23T03:31:36.645Z,2.47
2018-11-23T03:34:06.166Z,2.13
2018-11-23T03:36:35.470Z,2.22
2018-11-23T03:39:07.693Z,2.35
2018-11-23T03:41:37.297Z,2.75
2018-11-23T03:44:06.677Z,2.60
2018-11-23T03:46:36.072Z,2.40
2018-11-23T03:49:05.669Z,2.60
2018-11-23T03:51:35.625Z,2.20
2018-11-23T03:54:04.988Z,2.40
2018-11-23T03:56:34.336Z,2.40
2018-11-23T03:59:03.813Z,2.40
2018-11-23T04:01:33.142Z,2.40
2018-11-23T04:04:02.606Z,2.40
2018-11-23T04:06:32.065Z,2.37
2018-11-23T04:09:01.392Z,2.53
2018-11-23T04:11:30.797Z,2.40
2018-11-23T04:14:00.257Z,2.60
2018-11-23T04:16:29.537Z,2.30
2018-11-23T04:18:58.901Z,2.40
2018-11-23T04:21:28.353Z,2.60
2018-11-23T04:23:57.693Z,2.63
2018-11-23T04:26:27.899Z,2.62
2018-11-23T04:28:57.561Z,2.67
2018-11-23T04:31:27.877Z,2.93
2018-11-23T04:33:57.353Z,2.50
2018-11-23T04:36:26.659Z,2.73
2018-11-23T04:38:56.421Z,3.00
2018-11-23T04:41:25.701Z,2.43
2018-11-23T04:43:54.987Z,2.90
2018-11-23T04:46:24.395Z,3.23
2018-11-23T04:48:53.973Z,2.97
2018-11-23T04:51:23.316Z,3.23
2018-11-23T04:53:52.613Z,3.07
2018-11-23T04:56:21.879Z,3.20
2018-11-23T04:58:51.733Z,3.23
2018-11-23T05:01:21.119Z,3.57
2018-11-23T05:03:50.369Z,3.40
2018-11-23T05:06:19.869Z,3.30
2018-11-23T05:08:49.413Z,3.30
2018-11-23T05:11:19.241Z,3.30
2018-11-23T05:13:49.109Z,3.30
2018-11-23T05:16:18.466Z,3.70
2018-11-23T05:18:47.954Z,3.70
2018-11-23T05:21:17.296Z,3.83
2018-11-23T05:23:46.579Z,3.97
2018-11-23T05:26:15.980Z,4.33
2018-11-23T05:28:45.467Z,4.58
2018-11-23T05:31:14.961Z,4.73
2018-11-23T05:33:44.377Z,5.08
2018-11-23T05:36:13.869Z,5.03
2018-11-23T05:38:43.235Z,5.67
2018-11-23T05:41:12.747Z,5.33
2018-11-23T05:43:42.160Z,5.50
2018-11-23T05:46:11.751Z,5.27
2018-11-23T05:48:41.096Z,5.17
2018-11-23T05:51:10.814Z,4.93
2018-11-23T05:53:40.277Z,4.92
2018-11-23T05:56:09.744Z,4.87
2018-11-23T05:58:39.306Z,4.63
2018-11-23T06:01:08.628Z,5.03
2018-11-23T06:03:37.934Z,4.40
2018-11-23T06:06:07.377Z,5.50
2018-11-23T06:08:36.712Z,4.92
2018-11-23T06:11:06.689Z,5.30
2018-11-23T06:13:36.120Z,5.22
2018-11-23T06:16:05.773Z,5.47
2018-11-23T06:18:35.099Z,4.72
2018-11-23T06:21:04.573Z,5.63
2018-11-23T06:23:33.970Z,5.50
2018-11-23T06:26:12.994Z,5.40
2018-11-23T06:28:42.473Z,5.10
2018-11-23T06:31:12.228Z,5.80
2018-11-23T06:33:44.837Z,5.53
2018-11-23T06:36:14.197Z,6.07
2018-11-23T06:38:43.662Z,5.67
2018-11-23T06:41:13.252Z,6.20
2018-11-23T06:43:42.637Z,5.77
2018-11-23T06:46:12.671Z,6.23
2018-11-23T06:48:42.214Z,5.83
2018-11-23T06:51:11.509Z,5.93
2018-11-23T06:53:40.784Z,5.58
2018-11-23T06:56:10.163Z,6.20
2018-11-23T06:58:39.423Z,5.70
2018-11-23T07:01:08.704Z,7.03
2018-11-23T07:03:38.157Z,7.10
2018-11-23T07:06:07.473Z,6.47
2018-11-23T07:08:36.738Z,6.20
2018-11-23T07:11:06.613Z,6.67
2018-11-23T07:13:36.088Z,6.70
2018-11-23T07:16:05.582Z,6.77
2018-11-23T07:18:34.950Z,7.23
2018-11-23T07:21:04.756Z,7.27
2018-11-23T07:23:34.257Z,6.93
2018-11-23T07:26:03.717Z,7.57
2018-11-23T07:28:33.392Z,8.10
2018-11-23T07:31:02.689Z,7.33
2018-11-23T07:33:32.163Z,7.07
2018-11-23T07:36:01.511Z,7.23
2018-11-23T07:38:31.034Z,7.00
2018-11-23T07:41:11.618Z,7.50
2018-11-23T07:43:41.001Z,7.30
2018-11-23T07:46:10.286Z,7.10
2018-11-23T07:48:39.558Z,7.25
2018-11-23T07:51:08.884Z,7.23
2018-11-23T07:53:38.170Z,6.67
2018-11-23T07:56:07.476Z,7.23
2018-11-23T07:58:37.011Z,7.10
2018-11-23T08:01:06.405Z,5.60
2018-11-23T08:03:35.864Z,5.40
2018-11-23T08:06:05.330Z,5.97
2018-11-23T08:08:34.625Z,6.15
2018-11-23T08:11:07.206Z,5.80
2018-11-23T08:13:37.770Z,5.72
2018-11-23T08:16:07.376Z,5.60
2018-11-23T08:18:36.885Z,5.42
2018-11-23T08:21:06.328Z,5.90
2018-11-23T08:23:35.568Z,5.67
2018-11-23T08:26:04.915Z,5.60
2018-11-23T08:28:34.197Z,6.00
2018-11-23T08:31:03.502Z,5.67
2018-11-23T08:33:32.886Z,5.83
2018-11-23T08:36:02.421Z,5.90
2018-11-23T08:38:31.941Z,5.73
2018-11-23T08:41:01.320Z,5.50
2018-11-23T08:43:30.905Z,5.23
2018-11-23T08:46:00.782Z,6.10
2018-11-23T08:48:30.102Z,5.57
2018-11-23T08:50:59.974Z,6.43
2018-11-23T08:53:33.636Z,5.67
2018-11-23T08:56:03.616Z,5.70
2018-11-23T08:58:33.079Z,5.87
2018-11-23T09:01:02.383Z,5.23
2018-11-23T09:03:31.715Z,5.33
2018-11-23T09:06:01.061Z,6.10
2018-11-23T09:08:30.336Z,6.17
2018-11-23T09:10:59.745Z,5.03
2018-11-23T09:13:29.044Z,5.60
2018-11-23T09:15:58.499Z,5.00
2018-11-23T09:18:28.845Z,5.20
2018-11-23T09:20:58.272Z,5.67
2018-11-23T09:23:28.573Z,6.23
2018-11-23T09:25:57.876Z,6.10
2018-11-23T09:28:27.168Z,5.13
2018-11-23T09:30:56.629Z,6.33
2018-11-23T09:33:26.008Z,6.23
2018-11-23T09:35:55.326Z,5.53
2018-11-23T09:38:24.801Z,5.80
2018-11-23T09:40:54.071Z,5.87
2018-11-23T09:43:23.367Z,5.40
2018-11-23T09:45:52.663Z,5.77
2018-11-23T09:48:21.985Z,5.53
2018-11-23T09:50:51.296Z,5.63
2018-11-23T09:53:20.574Z,5.20
2018-11-23T09:55:50.292Z,6.73
2018-11-23T09:58:19.669Z,6.20
2018-11-23T10:00:49.268Z,5.97
2018-11-23T10:03:19.045Z,6.00
2018-11-23T10:05:48.558Z,6.60
2018-11-23T10:08:18.044Z,5.70
2018-11-23T10:10:47.378Z,6.33
2018-11-23T10:13:16.752Z,5.87
2018-11-23T10:15:46.142Z,5.95
2018-11-23T10:18:15.778Z,6.43
2018-11-23T10:20:45.248Z,6.22
2018-11-23T10:23:14.829Z,5.70
2018-11-23T10:25:44.116Z,6.33
2018-11-23T10:28:13.530Z,7.07
2018-11-23T10:30:42.808Z,6.25
2018-11-23T10:33:12.294Z,6.00
2018-11-23T10:35:41.620Z,6.70
2018-11-23T10:38:11.093Z,6.10
2018-11-23T10:40:41.137Z,6.20
2018-11-23T10:43:10.595Z,6.50
2018-11-23T10:45:40.077Z,6.53
2018-11-23T10:48:09.914Z,6.00
2018-11-23T10:50:40.873Z,6.37
2018-11-23T10:53:10.201Z,7.00
2018-11-23T10:55:39.742Z,6.35
2018-11-23T10:58:09.167Z,5.80
2018-11-23T11:00:43.821Z,5.93
2018-11-23T11:03:33.543Z,5.93
2018-11-23T11:06:10.568Z,6.20
2018-11-23T11:08:40.178Z,6.10
2018-11-23T11:11:09.876Z,6.10
2018-11-23T11:13:39.184Z,6.17
2018-11-23T11:16:08.546Z,6.67
2018-11-23T11:18:37.910Z,6.58
2018-11-23T11:21:07.281Z,6.90
2018-11-23T11:23:36.573Z,7.20
2018-11-23T11:26:06.255Z,6.92
2018-11-23T11:28:35.540Z,7.87
2018-11-23T11:31:05.383Z,8.30
2018-11-23T11:33:34.893Z,8.13
2018-11-23T11:36:04.355Z,9.00
2018-11-23T11:38:33.603Z,8.85
2018-11-23T11:41:02.931Z,9.87
2018-11-23T11:43:32.310Z,10.43
2018-11-23T11:46:01.595Z,11.43
2018-11-23T11:48:30.933Z,11.87
2018-11-23T11:51:00.533Z,13.57
2018-11-23T11:53:29.965Z,12.33
2018-11-23T11:55:59.301Z,11.68
2018-11-23T11:58:29.196Z,12.23
2018-11-23T12:00:58.546Z,12.30
2018-11-23T12:03:28.006Z,13.30
2018-11-23T12:05:57.401Z,13.83
2018-11-23T12:08:26.685Z,12.87
2018-11-23T12:10:56.775Z,13.17
2018-11-23T12:13:25.325Z,12.80
2018-11-23T12:15:55.201Z,15.83
2018-11-23T12:18:24.748Z,13.77
2018-11-23T12:20:54.077Z,14.67
2018-11-23T12:23:23.713Z,13.90
2018-11-23T12:25:52.987Z,14.70
2018-11-23T12:28:22.296Z,13.80
2018-11-23T12:30:52.026Z,13.97
2018-11-23T12:33:21.532Z,14.03
2018-11-23T12:35:51.005Z,13.90
2018-11-23T12:38:20.357Z,13.60
2018-11-23T12:40:49.704Z,14.50
2018-11-23T12:43:19.199Z,13.37
2018-11-23T12:45:49.049Z,13.60
2018-11-23T12:48:18.392Z,13.13
2018-11-23T12:50:47.780Z,14.27
2018-11-23T12:53:17.225Z,14.43
2018-11-23T12:55:46.633Z,12.80
2018-11-23T12:58:15.929Z,13.00
2018-11-23T13:00:45.294Z,13.83
2018-11-23T13:03:14.858Z,14.00
2018-11-23T13:05:44.716Z,13.05
2018-11-23T13:08:14.025Z,13.27
2018-11-23T13:10:43.316Z,14.37
2018-11-23T13:13:12.797Z,14.17
2018-11-23T13:15:42.403Z,14.63
2018-11-23T13:18:12.050Z,15.27
2018-11-23T13:20:41.389Z,15.73
2018-11-23T13:23:10.854Z,15.13
2018-11-23T13:25:40.173Z,14.90
2018-11-23T13:28:09.664Z,15.13
2018-11-23T13:30:39.149Z,14.87
2018-11-23T13:33:08.520Z,14.53
2018-11-23T13:35:37.880Z,14.37
2018-11-23T13:38:07.356Z,15.00
2018-11-23T13:40:37.193Z,15.20
2018-11-23T13:43:06.613Z,14.38
2018-11-23T13:45:35.944Z,15.13
2018-11-23T13:48:05.697Z,15.43
2018-11-23T13:50:35.104Z,15.57
2018-11-23T13:53:04.482Z,16.47
2018-11-23T13:55:33.807Z,16.50
2018-11-23T13:58:03.163Z,16.80
2018-11-23T14:00:32.501Z,15.70
2018-11-23T14:03:01.983Z,15.63
2018-11-23T14:05:32.312Z,14.57
2018-11-23T14:08:02.833Z,16.13
2018-11-23T14:10:32.402Z,14.80
2018-11-23T14:13:02.194Z,15.60
2018-11-23T14:15:31.912Z,16.63
2018-11-23T14:18:01.802Z,15.77
2018-11-23T14:20:31.565Z,16.27
2018-11-23T14:23:00.877Z,24.87
2018-11-23T14:25:31.481Z,16.47
2018-11-23T14:28:01.246Z,17.30
2018-11-23T14:30:32.913Z,18.87
2018-11-23T14:33:03.282Z,18.10
2018-11-23T14:35:33.865Z,16.97
2018-11-23T14:38:04.018Z,18.23
2018-11-23T14:40:33.368Z,18.33
2018-11-23T14:43:02.669Z,18.63
2018-11-23T14:45:34.429Z,18.30
2018-11-23T14:48:06.116Z,19.23
2018-11-23T14:50:39.645Z,19.00
2018-11-23T14:53:09.018Z,19.00
2018-11-23T14:55:38.355Z,19.10
2018-11-23T14:58:07.749Z,20.00
2018-11-23T15:00:38.250Z,20.77
2018-11-23T15:03:08.272Z,20.70
2018-11-23T15:05:38.017Z,19.90
2018-11-23T15:08:09.327Z,22.33
2018-11-23T15:10:40.353Z,22.58
2018-11-23T15:13:09.829Z,22.40
2018-11-23T15:15:40.272Z,21.93
2018-11-23T15:18:10.145Z,20.53
2018-11-23T15:20:44.126Z,20.85
2018-11-23T15:23:17.078Z,20.37
2018-11-23T15:25:46.656Z,20.80
2018-11-23T15:28:16.513Z,20.40
2018-11-23T15:30:46.575Z,21.52
2018-11-23T15:33:17.248Z,22.37
2018-11-23T15:35:46.765Z,22.07
2018-11-23T15:38:17.868Z,21.93
2018-11-23T15:40:47.441Z,21.63
2018-11-23T15:43:17.793Z,21.50
2018-11-23T15:45:47.479Z,22.65
2018-11-23T15:48:16.781Z,21.00
2018-11-23T15:50:46.599Z,21.60
2018-11-23T15:53:16.617Z,21.83
2018-11-23T15:55:46.546Z,21.17
2018-11-23T15:58:16.968Z,21.43
2018-11-23T16:00:47.480Z,22.27
2018-11-23T16:03:17.505Z,21.27
2018-11-23T16:05:46.920Z,21.93
2018-11-23T16:08:18.760Z,21.50
2018-11-23T16:10:48.384Z,21.57
2018-11-23T16:13:17.869Z,22.20
2018-11-23T16:15:47.367Z,21.50
2018-11-23T16:18:16.765Z,22.27
2018-11-23T16:20:46.794Z,22.02
2018-11-23T16:23:18.629Z,20.90
2018-11-23T16:25:48.538Z,19.87
2018-11-23T16:28:17.900Z,21.30
2018-11-23T16:30:48.561Z,19.75
2018-11-23T16:33:20.366Z,20.70
2018-11-23T16:35:49.732Z,18.93
2018-11-23T16:38:20.543Z,20.70
2018-11-23T16:40:53.500Z,19.13
2018-11-23T16:43:22.801Z,18.93
2018-11-23T16:45:52.413Z,19.93
2018-11-23T16:48:22.304Z,19.97
2018-11-23T16:50:51.866Z,19.40
2018-11-23T16:53:21.313Z,20.93
2018-11-23T16:55:50.816Z,21.83
2018-11-23T16:58:20.516Z,21.60
2018-11-23T17:00:50.044Z,31.20
2018-11-23T17:03:20.933Z,27.93
2018-11-23T17:05:51.744Z,23.65
2018-11-23T17:08:21.045Z,26.10
2018-11-23T17:10:50.625Z,18.83
2018-11-23T17:13:20.057Z,18.90
2018-11-23T17:15:50.086Z,18.20
2018-11-23T17:18:19.611Z,17.67
2018-11-23T17:20:49.134Z,17.73
2018-11-23T17:23:18.444Z,17.87
2018-11-23T17:25:48.075Z,18.55
2018-11-23T17:28:17.409Z,17.27
2018-11-23T17:30:47.045Z,18.53
2018-11-23T17:33:16.528Z,17.23
2018-11-23T17:35:45.929Z,18.57
2018-11-23T17:38:15.425Z,17.13
2018-11-23T17:40:44.993Z,17.60
2018-11-23T17:43:14.375Z,17.57
2018-11-23T17:45:43.741Z,17.30
2018-11-23T17:48:13.317Z,17.52
2018-11-23T17:50:42.883Z,15.83
2018-11-23T17:53:12.369Z,16.90
2018-11-23T17:55:41.660Z,17.33
2018-11-23T17:58:11.468Z,17.53
2018-11-23T18:00:40.794Z,17.10
2018-11-23T18:03:10.142Z,17.27
2018-11-23T18:05:39.657Z,16.57
2018-11-23T18:08:09.188Z,16.70
2018-11-23T18:10:38.536Z,18.17
2018-11-23T18:13:08.186Z,18.73
2018-11-23T18:15:37.800Z,17.27
2018-11-23T18:18:07.644Z,17.17
2018-11-23T18:20:37.110Z,18.07
2018-11-23T18:23:06.866Z,17.03
2018-11-23T18:25:38.902Z,18.98
2018-11-23T18:28:08.402Z,20.17
2018-11-23T18:30:37.738Z,19.92
2018-11-23T18:33:08.081Z,18.40
2018-11-23T18:35:37.567Z,20.82
2018-11-23T18:38:07.338Z,19.27
2018-11-23T18:40:37.689Z,19.17
2018-11-23T18:43:06.344Z,17.40
2018-11-23T18:45:35.834Z,17.00
2018-11-23T18:48:05.294Z,16.87
2018-11-23T18:50:34.615Z,17.00
2018-11-23T18:53:04.065Z,17.37
2018-11-23T18:55:33.448Z,19.30
2018-11-23T18:58:02.867Z,17.90
2018-11-23T19:00:33.020Z,17.97
2018-11-23T19:03:02.619Z,17.63
2018-11-23T19:05:32.063Z,17.57
2018-11-23T19:08:01.373Z,17.87
2018-11-23T19:10:30.781Z,17.47
2018-11-23T19:13:00.241Z,18.50
2018-11-23T19:15:30.557Z,16.37
2018-11-23T19:17:59.996Z,18.07
2018-11-23T19:25:23.882Z,17.40
2018-11-23T19:27:53.410Z,16.33
2018-11-23T19:30:28.771Z,16.97
2018-11-23T19:32:53.336Z,17.27
2018-11-23T19:35:22.793Z,18.17
2018-11-23T19:37:52.197Z,16.37
2018-11-23T19:40:21.704Z,16.93
2018-11-23T19:42:51.091Z,17.17
2018-11-23T19:45:20.365Z,17.83
2018-11-23T19:47:50.101Z,18.10
2018-11-23T19:50:19.643Z,18.43
2018-11-23T19:52:49.178Z,17.03
2018-11-23T19:55:18.595Z,19.10
2018-11-23T19:57:47.977Z,18.60
2018-11-23T20:00:22.713Z,19.37
2018-11-23T20:02:52.319Z,20.27
2018-11-23T20:05:22.036Z,19.05
2018-11-23T20:07:56.473Z,19.30
2018-11-23T20:10:26.475Z,19.43
2018-11-23T20:12:57.622Z,20.07
2018-11-23T20:15:26.997Z,19.27
2018-11-23T20:17:56.383Z,19.90
2018-11-23T20:20:25.754Z,19.57
2018-11-23T20:22:55.096Z,19.47
2018-11-23T20:25:24.592Z,18.67
2018-11-23T20:27:54.113Z,18.67
2018-11-23T20:30:23.664Z,20.57
2018-11-23T20:32:53.074Z,19.33
2018-11-23T20:35:23.209Z,20.67
2018-11-23T20:37:52.613Z,19.43
2018-11-23T20:40:23.069Z,19.77
2018-11-23T20:42:52.532Z,20.63
2018-11-23T20:45:21.958Z,21.13
2018-11-23T20:47:51.493Z,19.67
2018-11-23T20:50:20.830Z,19.87
2018-11-23T20:52:50.321Z,20.03
2018-11-23T20:55:21.671Z,20.07
2018-11-23T20:57:51.697Z,20.90
2018-11-23T21:00:22.277Z,20.77
2018-11-23T21:02:52.821Z,20.03
2018-11-23T21:05:22.572Z,20.07
2018-11-23T21:07:52.223Z,21.80
2018-11-23T21:10:25.430Z,20.50
2018-11-23T21:12:55.353Z,20.43
2018-11-23T21:15:26.196Z,22.05
2018-11-23T21:17:56.237Z,21.70
2018-11-23T21:20:25.764Z,21.40
2018-11-23T21:22:55.664Z,21.57
2018-11-23T21:25:25.574Z,21.27
2018-11-23T21:27:56.128Z,20.57
2018-11-23T21:30:25.461Z,21.43
2018-11-23T21:32:55.946Z,20.87
2018-11-23T21:35:25.763Z,22.07
2018-11-23T21:37:55.195Z,21.63
2018-11-23T21:40:24.568Z,20.83
2018-11-23T21:42:54.087Z,21.83
2018-11-23T21:45:23.597Z,22.10
2018-11-23T21:47:52.946Z,21.93
2018-11-23T21:50:25.650Z,21.87
2018-11-23T21:52:51.978Z,21.23
2018-11-23T21:55:22.569Z,23.23
2018-11-23T21:57:53.424Z,23.27
2018-11-23T22:00:24.250Z,22.27
2018-11-23T22:02:53.679Z,21.83
2018-11-23T22:05:23.520Z,21.97
2018-11-23T22:07:52.900Z,22.37
2018-11-23T22:10:22.384Z,22.30
2018-11-23T22:12:51.789Z,22.37
2018-11-23T22:15:22.600Z,22.23
2018-11-23T22:17:53.038Z,21.97
2018-11-23T22:20:22.977Z,22.00
2018-11-23T22:22:52.379Z,23.30
2018-11-23T22:25:22.993Z,22.43
2018-11-23T22:27:52.597Z,23.27
2018-11-23T22:30:24.605Z,22.27
2018-11-23T22:32:54.119Z,22.80
2018-11-23T22:35:23.446Z,23.07
2018-11-23T22:37:53.112Z,22.50
2018-11-23T22:40:22.616Z,22.67
2018-11-23T22:42:55.600Z,22.13
2018-11-23T22:45:24.952Z,22.00
2018-11-23T22:47:54.536Z,21.50
2018-11-23T22:50:24.381Z,23.67
2018-11-23T22:52:53.800Z,22.33
2018-11-23T22:55:23.389Z,22.93
2018-11-23T22:57:52.779Z,22.40
2018-11-23T23:01:28.463Z,21.53
2018-11-23T23:03:58.077Z,22.17
2018-11-23T23:06:27.605Z,23.60
2018-11-23T23:08:56.927Z,23.13
2018-11-23T23:11:26.252Z,21.90
2018-11-23T23:13:55.894Z,22.77
2018-11-23T23:16:25.359Z,23.07
2018-11-23T23:18:54.822Z,22.83
2018-11-23T23:21:24.532Z,21.80
2018-11-23T23:23:54.188Z,22.70
2018-11-23T23:26:23.984Z,22.07
2018-11-23T23:28:53.316Z,22.80
2018-11-23T23:31:23.009Z,21.33
2018-11-23T23:33:52.325Z,23.83
2018-11-23T23:36:21.908Z,21.73
2018-11-23T23:38:51.361Z,21.87
2018-11-23T23:41:20.837Z,22.47
2018-11-23T23:43:50.352Z,22.20
2018-11-23T23:46:19.702Z,21.23
2018-11-23T23:48:49.497Z,20.47
2018-11-23T23:51:18.776Z,20.63
2018-11-23T23:53:48.306Z,21.40
2018-11-23T23:56:17.727Z,22.13
2018-11-23T23:58:47.336Z,20.20
